sensor_id;sensor_type;location;lat;lon;timestamp;pressure;altitude;pressure_sealevel;temperature;humidity
79198;BME280;68628;48.714;9.472;2023-04-25T00:01:33;97473.38;;;8.24;75.40
79198;BME280;68628;48.714;9.472;2023-04-25T00:04:02;97471.63;;;8.16;76.00
79198;BME280;68628;48.714;9.472;2023-04-25T00:06:28;97471.38;;;8.26;75.43
79198;BME280;68628;48.714;9.472;2023-04-25T00:08:55;97466.25;;;8.32;74.88
79198;BME280;68628;48.714;9.472;2023-04-25T00:11:22;97457.97;;;8.21;74.97
79198;BME280;68628;48.714;9.472;2023-04-25T00:13:48;97459.16;;;8.33;74.82
79198;BME280;68628;48.714;9.472;2023-04-25T00:16:23;97470.28;;;8.20;76.02
79198;BME280;68628;48.714;9.472;2023-04-25T00:18:49;97463.81;;;8.31;76.16
79198;BME280;68628;48.714;9.472;2023-04-25T00:21:18;97462.25;;;8.22;75.92
79198;BME280;68628;48.714;9.472;2023-04-25T00:23:45;97459.81;;;8.35;75.38
79198;BME280;68628;48.714;9.472;2023-04-25T00:26:11;97454.28;;;8.30;75.30
79198;BME280;68628;48.714;9.472;2023-04-25T00:28:37;97460.00;;;8.33;74.92
79198;BME280;68628;48.714;9.472;2023-04-25T00:31:04;97450.22;;;8.27;75.27
79198;BME280;68628;48.714;9.472;2023-04-25T00:33:29;97446.41;;;8.30;75.21
79198;BME280;68628;48.714;9.472;2023-04-25T00:35:55;97436.53;;;8.32;75.45
79198;BME280;68628;48.714;9.472;2023-04-25T00:38:22;97438.16;;;8.33;75.12
79198;BME280;68628;48.714;9.472;2023-04-25T00:40:50;97434.69;;;8.17;75.46
79198;BME280;68628;48.714;9.472;2023-04-25T00:43:16;97442.31;;;8.12;75.60
79198;BME280;68628;48.714;9.472;2023-04-25T00:45:47;97462.00;;;8.08;74.70
79198;BME280;68628;48.714;9.472;2023-04-25T00:48:17;97459.13;;;8.03;74.70
79198;BME280;68628;48.714;9.472;2023-04-25T00:50:52;97441.47;;;8.12;75.27
79198;BME280;68628;48.714;9.472;2023-04-25T00:53:23;97445.38;;;8.16;75.59
79198;BME280;68628;48.714;9.472;2023-04-25T00:55:51;97438.34;;;8.16;75.16
79198;BME280;68628;48.714;9.472;2023-04-25T00:58:18;97434.81;;;8.24;75.09
79198;BME280;68628;48.714;9.472;2023-04-25T01:00:50;97428.56;;;8.25;74.62
79198;BME280;68628;48.714;9.472;2023-04-25T01:03:18;97432.19;;;8.24;74.04
79198;BME280;68628;48.714;9.472;2023-04-25T01:05:50;97428.22;;;8.28;73.61
79198;BME280;68628;48.714;9.472;2023-04-25T01:08:16;97428.75;;;8.24;74.01
79198;BME280;68628;48.714;9.472;2023-04-25T01:10:42;97424.84;;;8.20;73.83
79198;BME280;68628;48.714;9.472;2023-04-25T01:13:08;97422.59;;;8.16;74.70
79198;BME280;68628;48.714;9.472;2023-04-25T01:15:36;97418.06;;;8.25;73.99
79198;BME280;68628;48.714;9.472;2023-04-25T01:18:04;97417.53;;;8.15;74.39
79198;BME280;68628;48.714;9.472;2023-04-25T01:20:32;97421.56;;;8.17;74.98
79198;BME280;68628;48.714;9.472;2023-04-25T01:22:59;97414.25;;;8.28;74.59
79198;BME280;68628;48.714;9.472;2023-04-25T01:25:28;97415.19;;;8.35;74.05
79198;BME280;68628;48.714;9.472;2023-04-25T01:27:57;97409.19;;;8.26;74.10
79198;BME280;68628;48.714;9.472;2023-04-25T01:30:26;97406.75;;;8.25;74.43
79198;BME280;68628;48.714;9.472;2023-04-25T01:32:56;97407.94;;;8.22;74.45
79198;BME280;68628;48.714;9.472;2023-04-25T01:35:22;97411.13;;;8.32;73.75
79198;BME280;68628;48.714;9.472;2023-04-25T01:37:51;97408.47;;;8.17;74.31
79198;BME280;68628;48.714;9.472;2023-04-25T01:40:17;97404.13;;;8.10;74.60
79198;BME280;68628;48.714;9.472;2023-04-25T01:42:48;97398.97;;;8.16;74.21
79198;BME280;68628;48.714;9.472;2023-04-25T01:45:14;97411.44;;;8.14;74.33
79198;BME280;68628;48.714;9.472;2023-04-25T01:47:40;97410.44;;;8.00;75.33
79198;BME280;68628;48.714;9.472;2023-04-25T01:50:12;97409.09;;;8.05;75.14
79198;BME280;68628;48.714;9.472;2023-04-25T01:52:43;97406.81;;;8.01;75.12
79198;BME280;68628;48.714;9.472;2023-04-25T01:55:09;97406.28;;;8.06;74.69
79198;BME280;68628;48.714;9.472;2023-04-25T01:57:35;97410.09;;;8.04;75.63
79198;BME280;68628;48.714;9.472;2023-04-25T02:00:04;97403.56;;;7.99;76.24
79198;BME280;68628;48.714;9.472;2023-04-25T02:02:32;97404.84;;;8.04;76.28
79198;BME280;68628;48.714;9.472;2023-04-25T02:04:57;97411.72;;;8.05;76.61
79198;BME280;68628;48.714;9.472;2023-04-25T02:07:26;97408.44;;;8.03;76.54
79198;BME280;68628;48.714;9.472;2023-04-25T02:09:55;97401.84;;;8.07;76.07
79198;BME280;68628;48.714;9.472;2023-04-25T02:12:21;97396.28;;;7.87;78.00
79198;BME280;68628;48.714;9.472;2023-04-25T02:14:51;97394.47;;;7.87;78.82
79198;BME280;68628;48.714;9.472;2023-04-25T02:17:17;97405.72;;;7.96;77.91
79198;BME280;68628;48.714;9.472;2023-04-25T02:19:43;97406.72;;;7.95;78.76
79198;BME280;68628;48.714;9.472;2023-04-25T02:22:09;97395.13;;;8.04;77.99
79198;BME280;68628;48.714;9.472;2023-04-25T02:24:36;97401.03;;;7.91;78.89
79198;BME280;68628;48.714;9.472;2023-04-25T02:27:01;97395.13;;;7.89;79.17
79198;BME280;68628;48.714;9.472;2023-04-25T02:29:38;97394.13;;;7.90;78.77
79198;BME280;68628;48.714;9.472;2023-04-25T02:32:04;97399.50;;;7.97;77.92
79198;BME280;68628;48.714;9.472;2023-04-25T02:34:30;97402.53;;;7.86;78.74
79198;BME280;68628;48.714;9.472;2023-04-25T02:36:58;97396.38;;;7.78;78.32
79198;BME280;68628;48.714;9.472;2023-04-25T02:39:24;97395.22;;;7.81;77.89
79198;BME280;68628;48.714;9.472;2023-04-25T02:41:51;97393.38;;;7.81;77.59
79198;BME280;68628;48.714;9.472;2023-04-25T02:44:19;97398.41;;;7.68;77.76
79198;BME280;68628;48.714;9.472;2023-04-25T02:46:48;97394.16;;;7.67;78.75
79198;BME280;68628;48.714;9.472;2023-04-25T02:49:13;97389.94;;;7.66;77.97
79198;BME280;68628;48.714;9.472;2023-04-25T02:51:39;97392.09;;;7.62;78.35
79198;BME280;68628;48.714;9.472;2023-04-25T02:54:05;97391.44;;;7.60;78.96
79198;BME280;68628;48.714;9.472;2023-04-25T02:56:31;97387.53;;;7.56;79.20
79198;BME280;68628;48.714;9.472;2023-04-25T02:58:57;97393.13;;;7.53;79.06
79198;BME280;68628;48.714;9.472;2023-04-25T03:01:23;97391.00;;;7.57;78.64
79198;BME280;68628;48.714;9.472;2023-04-25T03:03:49;97384.22;;;7.62;78.86
79198;BME280;68628;48.714;9.472;2023-04-25T03:06:14;97387.34;;;7.58;78.64
79198;BME280;68628;48.714;9.472;2023-04-25T03:08:41;97388.41;;;7.48;79.66
79198;BME280;68628;48.714;9.472;2023-04-25T03:11:06;97382.72;;;7.45;78.89
79198;BME280;68628;48.714;9.472;2023-04-25T03:13:32;97382.66;;;7.53;78.41
79198;BME280;68628;48.714;9.472;2023-04-25T03:15:58;97384.09;;;7.56;77.76
79198;BME280;68628;48.714;9.472;2023-04-25T03:18:34;97379.09;;;7.46;78.46
79198;BME280;68628;48.714;9.472;2023-04-25T03:21:09;97378.66;;;7.42;78.46
79198;BME280;68628;48.714;9.472;2023-04-25T03:23:35;97382.06;;;7.43;79.00
79198;BME280;68628;48.714;9.472;2023-04-25T03:26:04;97375.19;;;7.42;79.33
79198;BME280;68628;48.714;9.472;2023-04-25T03:28:35;97379.50;;;7.34;79.57
79198;BME280;68628;48.714;9.472;2023-04-25T03:31:01;97375.91;;;7.36;79.83
79198;BME280;68628;48.714;9.472;2023-04-25T03:33:27;97368.09;;;7.27;79.82
79198;BME280;68628;48.714;9.472;2023-04-25T03:35:53;97367.09;;;7.28;79.62
79198;BME280;68628;48.714;9.472;2023-04-25T03:38:18;97379.91;;;7.23;79.15
79198;BME280;68628;48.714;9.472;2023-04-25T03:40:47;97367.78;;;7.22;79.25
79198;BME280;68628;48.714;9.472;2023-04-25T03:43:17;97364.84;;;7.25;79.05
79198;BME280;68628;48.714;9.472;2023-04-25T03:45:45;97372.16;;;7.30;79.27
79198;BME280;68628;48.714;9.472;2023-04-25T03:48:11;97372.03;;;7.23;78.45
79198;BME280;68628;48.714;9.472;2023-04-25T03:50:37;97375.94;;;7.27;78.88
79198;BME280;68628;48.714;9.472;2023-04-25T03:53:05;97368.25;;;7.26;79.11
79198;BME280;68628;48.714;9.472;2023-04-25T03:55:31;97375.03;;;7.20;79.95
79198;BME280;68628;48.714;9.472;2023-04-25T03:58:00;97363.88;;;7.18;79.30
79198;BME280;68628;48.714;9.472;2023-04-25T04:00:37;97370.00;;;7.10;79.52
79198;BME280;68628;48.714;9.472;2023-04-25T04:03:02;97370.16;;;7.09;79.34
79198;BME280;68628;48.714;9.472;2023-04-25T04:05:31;97369.06;;;7.03;79.16
79198;BME280;68628;48.714;9.472;2023-04-25T04:08:01;97369.75;;;6.97;79.01
79198;BME280;68628;48.714;9.472;2023-04-25T04:10:26;97372.72;;;6.94;79.23
79198;BME280;68628;48.714;9.472;2023-04-25T04:12:52;97369.97;;;6.87;79.27
79198;BME280;68628;48.714;9.472;2023-04-25T04:15:18;97376.69;;;6.90;79.71
79198;BME280;68628;48.714;9.472;2023-04-25T04:17:49;97380.94;;;6.91;80.31
79198;BME280;68628;48.714;9.472;2023-04-25T04:20:18;97382.09;;;6.88;80.05
79198;BME280;68628;48.714;9.472;2023-04-25T04:22:49;97383.38;;;6.92;80.23
79198;BME280;68628;48.714;9.472;2023-04-25T04:25:17;97383.69;;;6.97;80.56
79198;BME280;68628;48.714;9.472;2023-04-25T04:27:48;97380.03;;;6.98;80.19
79198;BME280;68628;48.714;9.472;2023-04-25T04:30:17;97386.75;;;7.01;80.38
79198;BME280;68628;48.714;9.472;2023-04-25T04:32:45;97376.44;;;6.99;80.85
79198;BME280;68628;48.714;9.472;2023-04-25T04:35:11;97381.47;;;7.09;79.52
79198;BME280;68628;48.714;9.472;2023-04-25T04:37:51;97386.47;;;7.19;79.92
79198;BME280;68628;48.714;9.472;2023-04-25T04:40:35;97393.97;;;7.30;79.54
79198;BME280;68628;48.714;9.472;2023-04-25T04:43:01;97387.38;;;7.34;79.09
79198;BME280;68628;48.714;9.472;2023-04-25T04:45:27;97392.63;;;7.34;80.05
79198;BME280;68628;48.714;9.472;2023-04-25T04:48:01;97396.44;;;7.47;79.19
79198;BME280;68628;48.714;9.472;2023-04-25T04:50:36;97394.47;;;7.49;78.77
79198;BME280;68628;48.714;9.472;2023-04-25T04:53:03;97400.03;;;7.54;77.91
79198;BME280;68628;48.714;9.472;2023-04-25T04:55:33;97401.50;;;7.48;78.73
79198;BME280;68628;48.714;9.472;2023-04-25T04:57:59;97406.56;;;7.50;78.85
79198;BME280;68628;48.714;9.472;2023-04-25T05:00:25;97410.25;;;7.64;77.86
79198;BME280;68628;48.714;9.472;2023-04-25T05:02:51;97404.22;;;7.63;78.00
79198;BME280;68628;48.714;9.472;2023-04-25T05:05:19;97401.16;;;7.75;78.16
79198;BME280;68628;48.714;9.472;2023-04-25T05:07:45;97395.50;;;7.86;77.52
79198;BME280;68628;48.714;9.472;2023-04-25T05:10:11;97401.50;;;7.72;77.36
79198;BME280;68628;48.714;9.472;2023-04-25T05:12:36;97395.31;;;8.03;76.48
79198;BME280;68628;48.714;9.472;2023-04-25T05:15:02;97402.22;;;8.04;76.78
79198;BME280;68628;48.714;9.472;2023-04-25T05:17:28;97410.00;;;8.12;76.36
79198;BME280;68628;48.714;9.472;2023-04-25T05:20:05;97398.69;;;7.96;75.33
79198;BME280;68628;48.714;9.472;2023-04-25T05:22:49;97393.31;;;7.90;76.46
79198;BME280;68628;48.714;9.472;2023-04-25T05:25:15;97394.31;;;7.89;76.87
79198;BME280;68628;48.714;9.472;2023-04-25T05:27:41;97402.00;;;7.90;77.28
79198;BME280;68628;48.714;9.472;2023-04-25T05:30:12;97395.03;;;7.97;77.34
79198;BME280;68628;48.714;9.472;2023-04-25T05:32:48;97402.13;;;7.97;77.92
79198;BME280;68628;48.714;9.472;2023-04-25T05:35:30;97407.28;;;8.05;77.19
79198;BME280;68628;48.714;9.472;2023-04-25T05:37:56;97397.63;;;8.06;76.85
79198;BME280;68628;48.714;9.472;2023-04-25T05:40:25;97406.13;;;8.23;75.78
79198;BME280;68628;48.714;9.472;2023-04-25T05:42:57;97419.50;;;8.13;76.91
79198;BME280;68628;48.714;9.472;2023-04-25T05:45:22;97408.03;;;8.14;77.11
79198;BME280;68628;48.714;9.472;2023-04-25T05:47:51;97407.56;;;8.10;75.88
79198;BME280;68628;48.714;9.472;2023-04-25T05:50:29;97406.56;;;8.11;76.28
79198;BME280;68628;48.714;9.472;2023-04-25T05:53:00;97412.53;;;8.20;77.57
79198;BME280;68628;48.714;9.472;2023-04-25T05:55:26;97413.59;;;8.49;76.88
79198;BME280;68628;48.714;9.472;2023-04-25T05:57:54;97406.06;;;8.61;74.64
79198;BME280;68628;48.714;9.472;2023-04-25T06:00:20;97411.13;;;8.77;73.22
79198;BME280;68628;48.714;9.472;2023-04-25T06:03:01;97415.38;;;8.93;74.17
79198;BME280;68628;48.714;9.472;2023-04-25T06:05:35;97413.88;;;9.06;73.46
79198;BME280;68628;48.714;9.472;2023-04-25T06:08:04;97405.94;;;9.21;72.09
79198;BME280;68628;48.714;9.472;2023-04-25T06:10:33;97411.75;;;9.53;70.67
79198;BME280;68628;48.714;9.472;2023-04-25T06:13:01;97419.47;;;9.39;69.79
79198;BME280;68628;48.714;9.472;2023-04-25T06:15:27;97408.75;;;9.56;70.89
79198;BME280;68628;48.714;9.472;2023-04-25T06:17:57;97406.63;;;9.66;69.02
79198;BME280;68628;48.714;9.472;2023-04-25T06:20:25;97412.47;;;9.68;69.59
79198;BME280;68628;48.714;9.472;2023-04-25T06:22:57;97419.50;;;9.82;67.16
79198;BME280;68628;48.714;9.472;2023-04-25T06:25:28;97413.03;;;9.85;67.25
79198;BME280;68628;48.714;9.472;2023-04-25T06:28:03;97417.06;;;9.81;68.30
79198;BME280;68628;48.714;9.472;2023-04-25T06:30:34;97407.72;;;10.07;68.02
79198;BME280;68628;48.714;9.472;2023-04-25T06:33:03;97410.94;;;10.02;67.52
79198;BME280;68628;48.714;9.472;2023-04-25T06:35:31;97407.91;;;9.77;66.58
79198;BME280;68628;48.714;9.472;2023-04-25T06:38:05;97402.22;;;9.52;67.27
79198;BME280;68628;48.714;9.472;2023-04-25T06:40:34;97398.56;;;9.31;66.23
79198;BME280;68628;48.714;9.472;2023-04-25T06:43:14;97391.91;;;9.50;66.12
79198;BME280;68628;48.714;9.472;2023-04-25T06:45:40;97391.31;;;10.05;66.94
79198;BME280;68628;48.714;9.472;2023-04-25T06:48:18;97383.34;;;10.26;63.69
79198;BME280;68628;48.714;9.472;2023-04-25T06:50:43;97386.47;;;10.72;64.26
79198;BME280;68628;48.714;9.472;2023-04-25T06:53:18;97389.59;;;10.47;62.80
79198;BME280;68628;48.714;9.472;2023-04-25T06:55:47;97389.03;;;10.23;64.35
79198;BME280;68628;48.714;9.472;2023-04-25T06:58:16;97387.63;;;10.27;64.80
79198;BME280;68628;48.714;9.472;2023-04-25T07:00:45;97388.66;;;10.33;64.56
79198;BME280;68628;48.714;9.472;2023-04-25T07:03:17;97389.94;;;10.09;64.04
79198;BME280;68628;48.714;9.472;2023-04-25T07:05:45;97404.53;;;9.61;64.20
79198;BME280;68628;48.714;9.472;2023-04-25T07:08:17;97400.50;;;9.65;64.61
79198;BME280;68628;48.714;9.472;2023-04-25T07:10:46;97411.00;;;9.37;65.03
79198;BME280;68628;48.714;9.472;2023-04-25T07:13:21;97403.84;;;9.31;63.79
79198;BME280;68628;48.714;9.472;2023-04-25T07:15:50;97402.47;;;9.35;65.00
79198;BME280;68628;48.714;9.472;2023-04-25T07:18:24;97402.91;;;9.02;64.84
79198;BME280;68628;48.714;9.472;2023-04-25T07:20:50;97401.88;;;9.18;64.36
79198;BME280;68628;48.714;9.472;2023-04-25T07:23:26;97412.31;;;9.26;64.58
79198;BME280;68628;48.714;9.472;2023-04-25T07:26:02;97410.78;;;9.17;65.16
79198;BME280;68628;48.714;9.472;2023-04-25T07:28:33;97406.00;;;9.27;64.83
79198;BME280;68628;48.714;9.472;2023-04-25T07:30:59;97409.13;;;8.94;64.92
79198;BME280;68628;48.714;9.472;2023-04-25T07:33:34;97418.78;;;8.94;66.53
79198;BME280;68628;48.714;9.472;2023-04-25T07:36:02;97416.09;;;8.87;65.25
79198;BME280;68628;48.714;9.472;2023-04-25T07:38:28;97420.06;;;8.98;66.27
79198;BME280;68628;48.714;9.472;2023-04-25T07:40:56;97414.19;;;8.96;66.96
79198;BME280;68628;48.714;9.472;2023-04-25T07:43:27;97421.66;;;9.14;67.50
79198;BME280;68628;48.714;9.472;2023-04-25T07:45:56;97430.91;;;9.10;67.94
79198;BME280;68628;48.714;9.472;2023-04-25T07:48:27;97429.38;;;9.00;68.77
79198;BME280;68628;48.714;9.472;2023-04-25T07:50:53;97430.69;;;9.26;69.76
79198;BME280;68628;48.714;9.472;2023-04-25T07:53:22;97436.72;;;9.42;69.58
79198;BME280;68628;48.714;9.472;2023-04-25T07:55:48;97434.25;;;9.55;68.56
79198;BME280;68628;48.714;9.472;2023-04-25T07:58:14;97431.28;;;9.43;69.78
79198;BME280;68628;48.714;9.472;2023-04-25T08:00:43;97440.84;;;9.51;70.39
79198;BME280;68628;48.714;9.472;2023-04-25T08:03:09;97444.56;;;9.20;71.48
79198;BME280;68628;48.714;9.472;2023-04-25T08:05:35;97450.97;;;9.32;72.00
79198;BME280;68628;48.714;9.472;2023-04-25T08:08:00;97453.59;;;9.32;73.21
79198;BME280;68628;48.714;9.472;2023-04-25T08:10:27;97453.47;;;9.19;72.37
79198;BME280;68628;48.714;9.472;2023-04-25T08:12:53;97450.06;;;9.04;72.41
79198;BME280;68628;48.714;9.472;2023-04-25T08:15:18;97459.69;;;9.33;73.33
79198;BME280;68628;48.714;9.472;2023-04-25T08:17:44;97466.31;;;9.29;72.50
79198;BME280;68628;48.714;9.472;2023-04-25T08:20:11;97465.59;;;9.20;75.17
79198;BME280;68628;48.714;9.472;2023-04-25T08:22:40;97473.50;;;9.20;73.97
79198;BME280;68628;48.714;9.472;2023-04-25T08:27:50;97465.38;;;9.37;73.73
79198;BME280;68628;48.714;9.472;2023-04-25T08:30:15;97478.50;;;9.00;73.17
79198;BME280;68628;48.714;9.472;2023-04-25T08:32:41;97482.47;;;9.11;74.79
79198;BME280;68628;48.714;9.472;2023-04-25T08:35:07;97488.19;;;8.99;75.80
79198;BME280;68628;48.714;9.472;2023-04-25T08:37:33;97498.81;;;9.06;75.10
79198;BME280;68628;48.714;9.472;2023-04-25T08:39:59;97493.00;;;8.51;75.18
79198;BME280;68628;48.714;9.472;2023-04-25T08:42:26;97505.50;;;8.26;76.45
79198;BME280;68628;48.714;9.472;2023-04-25T08:44:53;97509.13;;;8.01;76.87
79198;BME280;68628;48.714;9.472;2023-04-25T08:47:22;97513.97;;;7.90;77.85
79198;BME280;68628;48.714;9.472;2023-04-25T08:49:49;97517.78;;;8.10;78.72
79198;BME280;68628;48.714;9.472;2023-04-25T08:52:22;97518.03;;;8.00;79.39
79198;BME280;68628;48.714;9.472;2023-04-25T08:55:00;97523.81;;;8.11;77.19
79198;BME280;68628;48.714;9.472;2023-04-25T08:57:27;97531.25;;;8.07;78.97
79198;BME280;68628;48.714;9.472;2023-04-25T09:00:01;97534.81;;;7.91;77.64
79198;BME280;68628;48.714;9.472;2023-04-25T09:02:34;97536.91;;;7.64;80.11
79198;BME280;68628;48.714;9.472;2023-04-25T09:05:02;97544.47;;;7.67;79.39
79198;BME280;68628;48.714;9.472;2023-04-25T09:07:30;97545.31;;;7.60;79.34
79198;BME280;68628;48.714;9.472;2023-04-25T09:09:58;97545.81;;;7.63;79.40
79198;BME280;68628;48.714;9.472;2023-04-25T09:12:28;97539.81;;;7.46;79.61
79198;BME280;68628;48.714;9.472;2023-04-25T09:15:03;97550.16;;;7.71;79.74
79198;BME280;68628;48.714;9.472;2023-04-25T09:17:30;97548.13;;;7.58;80.86
79198;BME280;68628;48.714;9.472;2023-04-25T09:20:08;97558.38;;;7.68;79.67
79198;BME280;68628;48.714;9.472;2023-04-25T09:22:36;97557.59;;;7.59;81.20
79198;BME280;68628;48.714;9.472;2023-04-25T09:25:07;97556.97;;;7.57;81.00
79198;BME280;68628;48.714;9.472;2023-04-25T09:27:34;97562.09;;;7.82;80.53
79198;BME280;68628;48.714;9.472;2023-04-25T09:30:03;97560.91;;;8.08;80.51
79198;BME280;68628;48.714;9.472;2023-04-25T09:32:30;97561.50;;;8.18;79.93
79198;BME280;68628;48.714;9.472;2023-04-25T09:34:57;97574.97;;;7.92;79.81
79198;BME280;68628;48.714;9.472;2023-04-25T09:37:28;97578.50;;;7.76;79.95
79198;BME280;68628;48.714;9.472;2023-04-25T09:39:58;97584.91;;;8.05;80.28
79198;BME280;68628;48.714;9.472;2023-04-25T09:42:28;97581.84;;;8.16;79.89
79198;BME280;68628;48.714;9.472;2023-04-25T09:44:57;97589.50;;;8.03;79.35
79198;BME280;68628;48.714;9.472;2023-04-25T09:47:25;97585.72;;;8.28;80.00
79198;BME280;68628;48.714;9.472;2023-04-25T09:49:53;97593.81;;;8.42;78.45
79198;BME280;68628;48.714;9.472;2023-04-25T09:52:24;97596.44;;;8.42;79.24
79198;BME280;68628;48.714;9.472;2023-04-25T09:54:51;97598.38;;;8.48;78.77
79198;BME280;68628;48.714;9.472;2023-04-25T09:57:23;97595.59;;;8.49;79.25
79198;BME280;68628;48.714;9.472;2023-04-25T09:59:53;97604.94;;;8.52;77.82
79198;BME280;68628;48.714;9.472;2023-04-25T10:02:24;97614.63;;;8.43;79.40
79198;BME280;68628;48.714;9.472;2023-04-25T10:04:58;97616.97;;;8.38;79.44
79198;BME280;68628;48.714;9.472;2023-04-25T10:07:31;97613.31;;;8.47;78.71
79198;BME280;68628;48.714;9.472;2023-04-25T10:10:02;97615.31;;;8.37;79.21
79198;BME280;68628;48.714;9.472;2023-04-25T10:12:30;97622.91;;;8.09;80.60
79198;BME280;68628;48.714;9.472;2023-04-25T10:14:58;97629.81;;;8.01;81.83
79198;BME280;68628;48.714;9.472;2023-04-25T10:17:27;97628.84;;;7.71;79.27
79198;BME280;68628;48.714;9.472;2023-04-25T10:19:54;97628.03;;;7.71;80.64
79198;BME280;68628;48.714;9.472;2023-04-25T10:22:29;97632.59;;;7.77;80.13
79198;BME280;68628;48.714;9.472;2023-04-25T10:25:00;97640.19;;;7.95;80.71
79198;BME280;68628;48.714;9.472;2023-04-25T10:27:30;97641.63;;;7.74;79.90
79198;BME280;68628;48.714;9.472;2023-04-25T10:30:13;97639.38;;;7.63;79.06
79198;BME280;68628;48.714;9.472;2023-04-25T10:32:44;97641.53;;;7.51;82.03
79198;BME280;68628;48.714;9.472;2023-04-25T10:38:09;97642.28;;;7.68;81.36
79198;BME280;68628;48.714;9.472;2023-04-25T10:40:38;97639.81;;;7.75;81.34
79198;BME280;68628;48.714;9.472;2023-04-25T10:45:59;97648.13;;;7.87;79.20
79198;BME280;68628;48.714;9.472;2023-04-25T10:48:30;97649.66;;;7.16;80.03
79198;BME280;68628;48.714;9.472;2023-04-25T10:53:44;97659.97;;;7.26;80.36
79198;BME280;68628;48.714;9.472;2023-04-25T10:56:31;97660.78;;;7.27;81.01
79198;BME280;68628;48.714;9.472;2023-04-25T10:59:13;97665.81;;;7.37;80.56
79198;BME280;68628;48.714;9.472;2023-04-25T11:01:41;97666.13;;;7.50;80.32
79198;BME280;68628;48.714;9.472;2023-04-25T11:04:30;97668.78;;;7.33;79.47
79198;BME280;68628;48.714;9.472;2023-04-25T11:10:33;97671.31;;;6.86;82.62
79198;BME280;68628;48.714;9.472;2023-04-25T11:13:00;97680.31;;;6.99;83.84
79198;BME280;68628;48.714;9.472;2023-04-25T11:15:27;97675.72;;;7.26;82.25
79198;BME280;68628;48.714;9.472;2023-04-25T11:17:59;97683.91;;;7.15;82.08
79198;BME280;68628;48.714;9.472;2023-04-25T11:20:26;97692.88;;;7.29;82.60
79198;BME280;68628;48.714;9.472;2023-04-25T11:22:53;97691.75;;;7.23;80.92
79198;BME280;68628;48.714;9.472;2023-04-25T11:25:22;97697.81;;;7.32;81.88
79198;BME280;68628;48.714;9.472;2023-04-25T11:30:17;97706.44;;;7.49;80.53
79198;BME280;68628;48.714;9.472;2023-04-25T11:32:43;97711.97;;;7.62;81.14
79198;BME280;68628;48.714;9.472;2023-04-25T11:35:10;97720.84;;;7.53;81.26
79198;BME280;68628;48.714;9.472;2023-04-25T11:37:36;97715.63;;;7.53;79.17
79198;BME280;68628;48.714;9.472;2023-04-25T11:40:08;97719.91;;;7.29;80.10
79198;BME280;68628;48.714;9.472;2023-04-25T11:42:44;97727.44;;;7.32;78.58
79198;BME280;68628;48.714;9.472;2023-04-25T11:45:11;97722.56;;;7.21;77.33
79198;BME280;68628;48.714;9.472;2023-04-25T11:47:37;97734.81;;;7.37;76.70
79198;BME280;68628;48.714;9.472;2023-04-25T11:50:06;97730.81;;;7.58;75.98
79198;BME280;68628;48.714;9.472;2023-04-25T11:52:44;97732.31;;;7.52;75.91
79198;BME280;68628;48.714;9.472;2023-04-25T11:55:17;97733.00;;;8.02;77.01
79198;BME280;68628;48.714;9.472;2023-04-25T11:57:48;97729.88;;;7.98;76.32
79198;BME280;68628;48.714;9.472;2023-04-25T12:00:19;97731.13;;;8.11;75.92
79198;BME280;68628;48.714;9.472;2023-04-25T12:02:51;97734.06;;;7.84;72.63
79198;BME280;68628;48.714;9.472;2023-04-25T12:05:19;97736.19;;;8.21;72.99
79198;BME280;68628;48.714;9.472;2023-04-25T12:07:46;97738.91;;;8.36;75.83
79198;BME280;68628;48.714;9.472;2023-04-25T12:10:14;97748.06;;;8.71;71.76
79198;BME280;68628;48.714;9.472;2023-04-25T12:12:43;97744.91;;;8.53;71.36
79198;BME280;68628;48.714;9.472;2023-04-25T12:15:16;97748.19;;;8.15;72.86
79198;BME280;68628;48.714;9.472;2023-04-25T12:17:48;97742.28;;;8.13;74.66
79198;BME280;68628;48.714;9.472;2023-04-25T12:20:25;97747.94;;;7.93;71.68
79198;BME280;68628;48.714;9.472;2023-04-25T12:22:53;97744.16;;;8.36;71.26
79198;BME280;68628;48.714;9.472;2023-04-25T12:28:16;97745.75;;;7.57;72.70
79198;BME280;68628;48.714;9.472;2023-04-25T12:33:26;97754.59;;;8.12;71.76
79198;BME280;68628;48.714;9.472;2023-04-25T12:35:57;97750.56;;;8.33;74.33
79198;BME280;68628;48.714;9.472;2023-04-25T12:38:28;97750.06;;;8.29;71.37
79198;BME280;68628;48.714;9.472;2023-04-25T12:40:57;97752.97;;;8.51;72.82
79198;BME280;68628;48.714;9.472;2023-04-25T12:43:24;97761.50;;;8.76;73.49
79198;BME280;68628;48.714;9.472;2023-04-25T12:45:51;97767.28;;;8.40;71.52
79198;BME280;68628;48.714;9.472;2023-04-25T12:48:18;97760.84;;;8.51;77.44
79198;BME280;68628;48.714;9.472;2023-04-25T12:50:45;97753.44;;;8.55;72.33
79198;BME280;68628;48.714;9.472;2023-04-25T12:53:15;97762.13;;;8.15;72.78
79198;BME280;68628;48.714;9.472;2023-04-25T12:55:47;97766.81;;;7.89;75.48
79198;BME280;68628;48.714;9.472;2023-04-25T12:58:15;97768.69;;;7.47;77.37
79198;BME280;68628;48.714;9.472;2023-04-25T13:00:48;97765.59;;;8.08;76.39
79198;BME280;68628;48.714;9.472;2023-04-25T13:03:16;97770.94;;;8.23;76.70
79198;BME280;68628;48.714;9.472;2023-04-25T13:05:45;97768.72;;;8.74;76.77
79198;BME280;68628;48.714;9.472;2023-04-25T13:08:13;97776.63;;;8.03;72.58
79198;BME280;68628;48.714;9.472;2023-04-25T13:10:41;97777.97;;;8.30;76.11
79198;BME280;68628;48.714;9.472;2023-04-25T13:13:11;97772.19;;;8.75;75.25
79198;BME280;68628;48.714;9.472;2023-04-25T13:15:43;97772.94;;;9.07;74.69
79198;BME280;68628;48.714;9.472;2023-04-25T13:18:14;97769.28;;;8.30;74.35
79198;BME280;68628;48.714;9.472;2023-04-25T13:20:42;97766.25;;;8.10;73.03
79198;BME280;68628;48.714;9.472;2023-04-25T13:23:11;97772.13;;;7.64;75.39
79198;BME280;68628;48.714;9.472;2023-04-25T13:25:37;97768.97;;;7.85;80.33
79198;BME280;68628;48.714;9.472;2023-04-25T13:28:03;97768.53;;;7.57;75.35
79198;BME280;68628;48.714;9.472;2023-04-25T13:30:29;97760.25;;;8.32;76.14
79198;BME280;68628;48.714;9.472;2023-04-25T13:32:54;97748.81;;;8.17;74.66
79198;BME280;68628;48.714;9.472;2023-04-25T13:35:22;97753.56;;;8.61;73.86
79198;BME280;68628;48.714;9.472;2023-04-25T13:37:48;97760.41;;;9.32;74.65
79198;BME280;68628;48.714;9.472;2023-04-25T13:40:13;97762.66;;;8.97;70.50
79198;BME280;68628;48.714;9.472;2023-04-25T13:42:39;97769.47;;;9.67;76.22